createdAt,value
2018-05-31T00:01:29.885Z,9.73
2018-05-31T00:03:57.970Z,9.30
2018-05-31T00:06:26.070Z,9.40
2018-05-31T00:08:54.922Z,9.80
2018-05-31T00:11:23.911Z,9.73
2018-05-31T00:13:52.025Z,10.93
2018-05-31T00:16:20.191Z,11.80
2018-05-31T00:18:48.248Z,10.63
2018-05-31T00:21:16.366Z,13.17
2018-05-31T00:23:44.467Z,17.80
2018-05-31T00:26:12.588Z,14.20
2018-05-31T00:28:40.679Z,16.33
2018-05-31T00:31:08.797Z,17.07
2018-05-31T00:33:36.915Z,17.50
2018-05-31T00:36:05.034Z,16.70
2018-05-31T00:38:33.562Z,17.00
2018-05-31T00:41:01.703Z,18.00
2018-05-31T00:43:29.786Z,16.50
2018-05-31T00:45:58.655Z,16.70
2018-05-31T00:48:26.758Z,15.10
2018-05-31T00:50:54.889Z,16.63
2018-05-31T00:53:23.032Z,15.67
2018-05-31T00:56:03.027Z,14.20
2018-05-31T00:58:31.156Z,14.13
2018-05-31T01:00:59.262Z,14.20
2018-05-31T01:03:27.356Z,13.90
2018-05-31T01:05:56.233Z,14.03
2018-05-31T01:08:24.581Z,14.03
2018-05-31T01:10:53.454Z,14.47
2018-05-31T01:13:22.320Z,13.57
2018-05-31T01:15:50.417Z,14.73
2018-05-31T01:18:18.618Z,13.90
2018-05-31T01:20:47.519Z,13.50
2018-05-31T01:23:16.386Z,12.10
2018-05-31T01:25:44.485Z,11.80
2018-05-31T01:28:12.581Z,12.40
2018-05-31T01:30:40.686Z,11.70
2018-05-31T01:33:09.534Z,11.80
2018-05-31T01:35:37.645Z,12.53
2018-05-31T01:38:17.595Z,11.40
2018-05-31T01:40:45.700Z,11.63
2018-05-31T01:43:13.803Z,11.03
2018-05-31T01:45:41.912Z,10.93
2018-05-31T01:48:10.010Z,11.57
2018-05-31T01:50:38.121Z,11.87
2018-05-31T01:53:06.213Z,12.70
2018-05-31T01:55:34.324Z,10.13
2018-05-31T01:58:02.425Z,10.67
2018-05-31T02:00:31.411Z,10.60
2018-05-31T02:03:00.279Z,11.10
2018-05-31T02:05:28.492Z,9.83
2018-05-31T02:07:56.566Z,8.70
2018-05-31T02:10:24.687Z,9.40
2018-05-31T02:12:52.791Z,8.90
2018-05-31T02:15:20.880Z,9.73
2018-05-31T02:17:48.975Z,8.20
2018-05-31T02:20:17.080Z,8.97
2018-05-31T02:22:45.231Z,9.20
2018-05-31T02:25:13.285Z,9.07
2018-05-31T02:27:41.382Z,8.90
2018-05-31T02:30:09.483Z,10.77
2018-05-31T02:32:37.581Z,8.90
2018-05-31T02:35:05.669Z,10.00
2018-05-31T02:37:33.780Z,7.73
2018-05-31T02:40:02.641Z,8.37
2018-05-31T02:42:30.758Z,8.00
2018-05-31T02:44:58.852Z,7.80
2018-05-31T02:47:27.735Z,8.13
2018-05-31T02:49:55.825Z,8.73
2018-05-31T02:52:23.920Z,8.47
2018-05-31T02:54:52.076Z,8.70
2018-05-31T02:57:20.140Z,8.87
2018-05-31T02:59:48.995Z,8.37
2018-05-31T03:02:37.132Z,8.33
2018-05-31T03:05:05.276Z,8.60
2018-05-31T03:07:33.353Z,8.17
2018-05-31T03:10:01.449Z,8.30
2018-05-31T03:12:29.541Z,8.10
2018-05-31T03:14:57.630Z,8.47
2018-05-31T03:17:26.328Z,8.00
2018-05-31T03:19:54.426Z,8.40
2018-05-31T03:22:22.515Z,8.77
2018-05-31T03:24:50.604Z,8.13
2018-05-31T03:27:18.702Z,8.60
2018-05-31T03:29:46.795Z,7.80
2018-05-31T03:32:14.890Z,9.27
2018-05-31T03:34:43.333Z,8.10
2018-05-31T03:37:11.432Z,7.47
2018-05-31T03:39:39.512Z,8.77
2018-05-31T03:42:08.505Z,10.37
2018-05-31T03:44:37.487Z,8.70
2018-05-31T03:47:05.558Z,8.23
2018-05-31T03:49:33.642Z,8.30
2018-05-31T03:52:01.749Z,8.73
2018-05-31T03:54:29.856Z,8.50
2018-05-31T03:56:58.161Z,9.17
2018-05-31T03:59:27.016Z,7.87
2018-05-31T04:01:55.105Z,8.50
2018-05-31T04:04:23.255Z,8.30
2018-05-31T04:06:51.364Z,8.20
2018-05-31T04:09:19.519Z,7.73
2018-05-31T04:11:47.639Z,8.17
2018-05-31T04:14:15.771Z,7.73
2018-05-31T04:16:43.846Z,7.40
2018-05-31T04:19:11.928Z,8.07
2018-05-31T04:21:40.025Z,9.40
2018-05-31T04:24:08.904Z,7.13
2018-05-31T04:26:37.901Z,7.50
2018-05-31T04:29:06.018Z,7.67
2018-05-31T04:34:21.550Z,10.73
2018-05-31T04:36:50.439Z,8.30
2018-05-31T04:39:20.117Z,8.27
2018-05-31T04:41:48.213Z,7.73
2018-05-31T04:44:16.454Z,7.30
2018-05-31T04:46:44.565Z,6.83
2018-05-31T04:49:12.650Z,7.80
2018-05-31T04:51:40.752Z,8.17
2018-05-31T04:54:08.832Z,7.70
2018-05-31T04:56:36.952Z,8.80
2018-05-31T04:59:05.807Z,7.87
2018-05-31T05:01:33.913Z,8.03
2018-05-31T05:04:02.008Z,9.53
2018-05-31T05:06:30.306Z,7.60
2018-05-31T05:08:59.191Z,8.47
2018-05-31T05:11:27.287Z,9.33
2018-05-31T05:13:56.200Z,8.37
2018-05-31T05:16:24.270Z,9.30
2018-05-31T05:18:52.392Z,9.03
2018-05-31T05:21:20.480Z,9.17
2018-05-31T05:23:48.685Z,9.47
2018-05-31T05:26:16.776Z,11.50
2018-05-31T05:28:44.875Z,16.37
2018-05-31T05:31:12.974Z,10.80
2018-05-31T05:33:42.461Z,10.03
2018-05-31T05:36:10.912Z,11.17
2018-05-31T05:38:39.040Z,9.90
2018-05-31T05:41:07.151Z,10.57
2018-05-31T05:43:35.257Z,9.63
2018-05-31T05:46:04.142Z,15.03
2018-05-31T05:48:32.277Z,14.13
2018-05-31T05:51:00.471Z,11.10
2018-05-31T05:53:28.585Z,10.60
2018-05-31T05:55:56.673Z,10.43
2018-05-31T05:58:24.801Z,11.17
2018-05-31T06:00:52.921Z,13.77
2018-05-31T06:03:21.024Z,10.97
2018-05-31T06:05:49.237Z,11.37
2018-05-31T06:08:17.453Z,11.90
2018-05-31T06:10:45.598Z,13.30
2018-05-31T06:13:14.023Z,14.53
2018-05-31T06:15:42.119Z,13.03
2018-05-31T06:18:10.316Z,11.60
2018-05-31T06:20:39.252Z,12.37
2018-05-31T06:23:07.421Z,13.07
2018-05-31T06:25:36.492Z,11.70
2018-05-31T06:28:04.651Z,11.73
2018-05-31T06:30:33.589Z,11.87
2018-05-31T06:33:01.685Z,12.90
2018-05-31T06:35:29.819Z,12.87
2018-05-31T06:37:57.920Z,18.23
2018-05-31T06:40:26.017Z,11.83
2018-05-31T06:42:54.162Z,12.47
2018-05-31T06:45:22.794Z,12.80
2018-05-31T06:47:50.902Z,12.40
2018-05-31T06:50:19.026Z,12.47
2018-05-31T06:52:47.131Z,14.13
2018-05-31T06:55:16.060Z,13.60
2018-05-31T06:57:44.129Z,13.20
2018-05-31T07:00:12.236Z,12.67
2018-05-31T07:02:40.342Z,12.83
2018-05-31T07:05:08.483Z,12.47
2018-05-31T07:07:36.702Z,15.53
2018-05-31T07:10:04.868Z,12.47
2018-05-31T07:12:32.971Z,12.40
2018-05-31T07:15:03.075Z,11.43
2018-05-31T07:17:31.199Z,13.63
2018-05-31T07:19:59.324Z,13.83
2018-05-31T07:22:27.492Z,11.70
2018-05-31T07:24:55.953Z,11.80
2018-05-31T07:27:24.064Z,12.40
2018-05-31T07:29:53.840Z,11.33
2018-05-31T07:32:21.984Z,12.90
2018-05-31T07:34:50.174Z,11.97
2018-05-31T07:37:19.043Z,11.73
2018-05-31T07:39:47.145Z,12.00
2018-05-31T07:42:15.253Z,11.20
2018-05-31T07:44:44.120Z,11.13
2018-05-31T07:47:12.215Z,9.60
2018-05-31T07:49:40.305Z,10.27
2018-05-31T07:52:08.395Z,10.03
2018-05-31T07:54:36.814Z,12.07
2018-05-31T07:57:04.960Z,11.50
2018-05-31T07:59:33.095Z,10.30
2018-05-31T08:02:01.199Z,11.83
2018-05-31T08:04:30.208Z,11.00
2018-05-31T08:06:58.299Z,10.30
2018-05-31T08:09:26.393Z,11.13
2018-05-31T08:11:54.487Z,10.87
2018-05-31T08:14:22.608Z,10.60
2018-05-31T08:16:50.704Z,9.83
2018-05-31T08:19:19.580Z,10.93
2018-05-31T08:21:48.436Z,9.37
2018-05-31T08:24:16.531Z,9.00
2018-05-31T08:26:44.728Z,9.07
2018-05-31T08:29:12.931Z,9.23
2018-05-31T08:31:41.355Z,9.80
2018-05-31T08:34:09.381Z,8.87
2018-05-31T08:36:37.602Z,9.80
2018-05-31T08:39:06.456Z,9.40
2018-05-31T08:41:34.588Z,9.07
2018-05-31T08:44:03.479Z,8.70
2018-05-31T08:46:31.544Z,9.33
2018-05-31T08:48:59.682Z,8.90
2018-05-31T08:51:28.528Z,9.53
2018-05-31T08:53:56.626Z,9.17
2018-05-31T08:56:24.723Z,8.73
2018-05-31T08:58:52.848Z,10.47
2018-05-31T09:01:20.954Z,8.73
2018-05-31T09:03:49.280Z,9.77
2018-05-31T09:06:17.357Z,9.70
2018-05-31T09:08:45.519Z,8.93
2018-05-31T09:11:13.659Z,9.20
2018-05-31T09:13:41.945Z,9.53
2018-05-31T09:16:10.018Z,9.07
2018-05-31T09:18:38.130Z,9.50
2018-05-31T09:21:06.218Z,9.80
2018-05-31T09:23:34.325Z,10.60
2018-05-31T09:26:02.457Z,9.93
2018-05-31T09:28:31.406Z,11.53
2018-05-31T09:31:00.250Z,9.57
2018-05-31T09:33:29.890Z,10.93
2018-05-31T09:35:58.052Z,10.00
2018-05-31T09:38:33.835Z,10.67
2018-05-31T09:41:02.004Z,10.00
2018-05-31T09:43:30.991Z,10.30
2018-05-31T09:45:59.196Z,9.30
2018-05-31T09:48:27.317Z,8.83
2018-05-31T09:50:55.536Z,9.97
2018-05-31T09:53:23.613Z,10.00
2018-05-31T09:55:51.710Z,9.10
2018-05-31T09:58:19.840Z,9.50
2018-05-31T10:00:47.945Z,9.67
2018-05-31T10:03:16.411Z,9.70
2018-05-31T10:05:45.351Z,10.97
2018-05-31T10:08:13.470Z,10.30
2018-05-31T10:10:41.628Z,10.70
2018-05-31T10:13:09.955Z,11.20
2018-05-31T10:15:38.052Z,10.57
2018-05-31T10:18:06.943Z,11.87
2018-05-31T10:20:35.090Z,11.17
2018-05-31T10:23:03.168Z,10.43
2018-05-31T10:25:31.299Z,9.93
2018-05-31T10:27:59.421Z,11.40
2018-05-31T10:30:27.652Z,10.90
2018-05-31T10:32:55.741Z,11.00
2018-05-31T10:35:24.700Z,9.47
2018-05-31T10:37:52.786Z,11.70
2018-05-31T10:40:20.990Z,9.70
2018-05-31T10:42:49.253Z,8.97
2018-05-31T10:45:17.846Z,9.00
2018-05-31T10:47:45.995Z,8.87
2018-05-31T10:50:14.084Z,8.87
2018-05-31T10:52:42.954Z,8.47
2018-05-31T10:55:11.144Z,9.90
2018-05-31T10:57:39.652Z,8.70
2018-05-31T11:00:07.772Z,8.23
2018-05-31T11:02:35.883Z,8.87
2018-05-31T11:05:03.986Z,8.53
2018-05-31T11:07:32.212Z,8.10
2018-05-31T11:10:00.285Z,8.60
2018-05-31T11:12:29.176Z,8.53
2018-05-31T11:14:57.512Z,8.10
2018-05-31T11:17:26.351Z,7.70
2018-05-31T11:19:54.433Z,8.90
2018-05-31T11:22:22.529Z,8.27
2018-05-31T11:24:50.647Z,9.57
2018-05-31T11:27:18.836Z,9.37
2018-05-31T11:29:46.922Z,8.30
2018-05-31T11:32:15.020Z,8.17
2018-05-31T11:34:43.903Z,7.93
2018-05-31T11:37:12.847Z,7.33
2018-05-31T11:39:40.962Z,8.80
2018-05-31T11:42:09.068Z,8.60
2018-05-31T11:44:37.963Z,8.13
2018-05-31T11:47:06.065Z,7.83
2018-05-31T11:49:34.258Z,8.40
2018-05-31T11:52:02.416Z,9.13
2018-05-31T11:54:31.276Z,8.50
2018-05-31T11:56:59.408Z,7.67
2018-05-31T11:59:27.503Z,7.90
2018-05-31T12:01:56.405Z,10.43
2018-05-31T12:04:25.253Z,7.87
2018-05-31T12:06:53.356Z,8.13
2018-05-31T12:09:21.502Z,8.67
2018-05-31T12:11:50.541Z,8.40
2018-05-31T12:14:18.705Z,7.83
2018-05-31T12:16:46.817Z,8.10
2018-05-31T12:19:15.081Z,7.90
2018-05-31T12:21:43.190Z,8.60
2018-05-31T12:24:11.968Z,9.57
2018-05-31T12:26:40.110Z,8.30
2018-05-31T12:29:08.255Z,7.90
2018-05-31T12:31:36.361Z,7.67
2018-05-31T12:34:04.456Z,7.97
2018-05-31T12:36:32.545Z,9.00
2018-05-31T12:39:00.972Z,9.60
2018-05-31T12:41:30.021Z,7.00
2018-05-31T12:43:58.129Z,7.60
2018-05-31T12:46:27.007Z,7.80
2018-05-31T12:48:55.144Z,8.07
2018-05-31T12:51:23.257Z,7.80
2018-05-31T12:53:51.346Z,8.33
2018-05-31T12:56:19.478Z,6.77
2018-05-31T12:58:47.581Z,8.23
2018-05-31T13:01:15.800Z,7.17
2018-05-31T13:03:44.897Z,8.50
2018-05-31T13:06:13.005Z,8.20
2018-05-31T13:08:41.619Z,6.80
2018-05-31T13:11:09.662Z,6.97
2018-05-31T13:13:37.811Z,8.03
2018-05-31T13:16:06.113Z,9.50
2018-05-31T13:18:34.213Z,8.63
2018-05-31T13:21:03.113Z,8.20
2018-05-31T13:23:31.331Z,7.53
2018-05-31T13:25:59.423Z,7.70
2018-05-31T13:28:27.537Z,10.53
2018-05-31T13:30:55.647Z,7.77
2018-05-31T13:33:23.801Z,7.63
2018-05-31T13:35:52.698Z,8.93
2018-05-31T13:38:21.568Z,6.93
2018-05-31T13:40:49.664Z,8.67
2018-05-31T13:43:17.828Z,8.00
2018-05-31T13:45:45.923Z,7.70
2018-05-31T13:48:14.117Z,8.10
2018-05-31T13:50:42.232Z,7.80
2018-05-31T13:53:10.473Z,7.97
2018-05-31T13:55:38.630Z,8.67
2018-05-31T13:58:07.664Z,7.57
2018-05-31T14:00:36.260Z,6.83
2018-05-31T14:03:04.362Z,8.13
2018-05-31T14:05:32.479Z,7.80
2018-05-31T14:08:00.580Z,6.93
2018-05-31T14:10:28.898Z,9.97
2018-05-31T14:12:57.006Z,9.50
2018-05-31T14:15:26.047Z,8.00
2018-05-31T14:17:55.028Z,8.50
2018-05-31T14:20:23.115Z,8.30
2018-05-31T14:22:52.457Z,9.60
2018-05-31T14:25:20.685Z,8.60
2018-05-31T14:27:48.831Z,7.83
2018-05-31T14:30:16.935Z,8.50
2018-05-31T14:32:45.035Z,8.40
2018-05-31T14:35:13.123Z,8.13
2018-05-31T14:37:41.241Z,8.57
2018-05-31T14:40:09.448Z,8.20
2018-05-31T14:42:38.317Z,8.50
2018-05-31T14:45:06.413Z,9.30
2018-05-31T14:47:34.549Z,8.00
2018-05-31T14:50:03.701Z,8.20
2018-05-31T14:52:31.820Z,7.30
2018-05-31T14:54:59.925Z,7.10
2018-05-31T14:57:28.032Z,8.30
2018-05-31T14:59:56.224Z,7.53
2018-05-31T15:02:24.320Z,7.20
2018-05-31T15:04:53.176Z,7.30
2018-05-31T15:07:21.275Z,8.40
2018-05-31T15:09:49.352Z,7.60
2018-05-31T15:12:17.471Z,8.03
2018-05-31T15:14:45.565Z,7.90
2018-05-31T15:17:14.713Z,7.20
2018-05-31T15:19:42.799Z,8.80
2018-05-31T15:22:10.897Z,8.73
2018-05-31T15:24:38.998Z,8.03
2018-05-31T15:27:07.115Z,7.33
2018-05-31T15:29:35.207Z,7.20
2018-05-31T15:32:03.304Z,8.03
2018-05-31T15:34:31.459Z,7.97
2018-05-31T15:36:59.547Z,8.53
2018-05-31T15:39:27.709Z,7.40
2018-05-31T15:41:55.836Z,7.17
2018-05-31T15:44:23.947Z,9.73
2018-05-31T15:46:52.048Z,7.57
2018-05-31T15:49:20.147Z,6.60
2018-05-31T15:51:48.243Z,6.47
2018-05-31T15:54:17.196Z,7.20
2018-05-31T15:56:45.274Z,8.60
2018-05-31T15:59:13.368Z,7.50
2018-05-31T16:01:41.480Z,7.03
2018-05-31T16:04:09.595Z,7.33
2018-05-31T16:06:38.467Z,7.53
2018-05-31T16:09:06.901Z,6.90
2018-05-31T16:11:35.814Z,6.83
2018-05-31T16:14:04.899Z,6.70
2018-05-31T16:16:33.227Z,7.73
2018-05-31T16:19:01.340Z,7.00
2018-05-31T16:21:29.426Z,8.93
2018-05-31T16:23:57.541Z,9.53
2018-05-31T16:26:26.593Z,7.33
2018-05-31T16:28:54.855Z,7.18
2018-05-31T16:31:23.957Z,7.43
2018-05-31T16:33:52.035Z,7.27
2018-05-31T16:36:20.195Z,7.23
2018-05-31T16:38:48.444Z,8.07
2018-05-31T16:41:16.563Z,10.30
2018-05-31T16:43:45.526Z,6.60
2018-05-31T16:46:13.902Z,6.90
2018-05-31T16:48:42.015Z,8.17
2018-05-31T16:51:10.103Z,7.73
2018-05-31T16:53:38.216Z,7.03
2018-05-31T16:56:06.499Z,7.57
2018-05-31T16:58:34.583Z,9.93
2018-05-31T17:01:02.683Z,6.83
2018-05-31T17:03:31.558Z,8.00
2018-05-31T17:05:59.742Z,7.70
2018-05-31T17:08:27.921Z,7.00
2018-05-31T17:10:56.880Z,7.03
2018-05-31T17:13:25.747Z,7.63
2018-05-31T17:15:53.843Z,8.30
2018-05-31T17:18:22.697Z,9.57
2018-05-31T17:20:50.826Z,7.07
2018-05-31T17:23:18.949Z,6.47
2018-05-31T17:25:47.056Z,7.30
2018-05-31T17:28:15.139Z,6.77
2018-05-31T17:30:43.261Z,7.30
2018-05-31T17:33:11.408Z,6.93
2018-05-31T17:35:39.508Z,7.63
2018-05-31T17:38:07.690Z,8.13
2018-05-31T17:40:35.825Z,6.80
2018-05-31T17:43:03.931Z,10.27
2018-05-31T17:45:32.832Z,8.20
2018-05-31T17:48:00.911Z,8.17
2018-05-31T17:50:29.865Z,6.70
2018-05-31T17:52:57.979Z,9.83
2018-05-31T17:55:26.853Z,7.60
2018-05-31T17:57:54.959Z,8.30
2018-05-31T18:00:23.848Z,6.13
2018-05-31T18:02:51.942Z,7.50
2018-05-31T18:05:20.041Z,7.70
2018-05-31T18:07:48.125Z,9.30
2018-05-31T18:10:16.219Z,8.67
2018-05-31T18:12:44.327Z,6.93
2018-05-31T18:15:12.433Z,7.90
2018-05-31T18:17:40.595Z,6.60
2018-05-31T18:20:08.697Z,7.30
2018-05-31T18:22:36.783Z,6.50
2018-05-31T18:25:04.880Z,6.80
2018-05-31T18:27:32.992Z,6.43
2018-05-31T18:30:01.860Z,6.83
2018-05-31T18:32:30.017Z,8.27
2018-05-31T18:34:58.923Z,6.93
2018-05-31T18:37:27.028Z,8.17
2018-05-31T18:39:55.139Z,10.50
2018-05-31T18:42:23.238Z,9.60
2018-05-31T18:44:51.395Z,7.90
2018-05-31T18:47:19.511Z,7.97
2018-05-31T18:49:47.628Z,7.47
2018-05-31T18:52:15.720Z,6.63
2018-05-31T18:54:43.826Z,5.60
2018-05-31T18:57:11.931Z,9.00
2018-05-31T18:59:40.023Z,6.07
2018-05-31T19:02:08.873Z,5.80
2018-05-31T19:04:36.975Z,8.30
2018-05-31T19:07:05.281Z,5.33
2018-05-31T19:09:36.933Z,7.93
2018-05-31T19:12:05.030Z,8.20
2018-05-31T19:14:33.116Z,8.50
2018-05-31T19:17:01.208Z,7.70
2018-05-31T19:19:35.668Z,9.70
2018-05-31T19:22:04.534Z,5.17
2018-05-31T19:24:38.244Z,5.90
2018-05-31T19:27:06.327Z,5.77
2018-05-31T19:29:34.419Z,6.77
2018-05-31T19:32:02.555Z,6.33
2018-05-31T19:34:30.700Z,6.80
2018-05-31T19:37:04.323Z,7.73
2018-05-31T19:39:33.164Z,6.30
2018-05-31T19:42:01.294Z,7.53
2018-05-31T19:44:35.083Z,9.30
2018-05-31T19:47:03.177Z,6.23
2018-05-31T19:49:31.289Z,7.83
2018-05-31T19:52:05.739Z,10.37
2018-05-31T19:54:33.818Z,8.50
2018-05-31T19:57:01.910Z,8.93
2018-05-31T19:59:35.658Z,6.10
2018-05-31T20:02:09.499Z,7.40
2018-05-31T20:04:37.653Z,6.20
2018-05-31T20:07:05.855Z,8.13
2018-05-31T20:09:33.972Z,6.20
2018-05-31T20:12:02.872Z,6.67
2018-05-31T20:14:31.060Z,6.87
2018-05-31T20:16:59.137Z,7.20
2018-05-31T20:19:27.242Z,8.10
2018-05-31T20:21:56.121Z,9.77
2018-05-31T20:24:24.323Z,6.77
2018-05-31T20:26:59.074Z,5.37
2018-05-31T20:29:27.227Z,8.10
2018-05-31T20:31:55.329Z,5.07
2018-05-31T20:34:23.424Z,6.73
2018-05-31T20:36:52.297Z,8.10
2018-05-31T20:39:20.423Z,6.33
2018-05-31T20:41:48.520Z,7.10
2018-05-31T20:44:16.657Z,8.20
2018-05-31T20:46:44.744Z,6.33
2018-05-31T20:49:12.834Z,7.80
2018-05-31T20:51:41.704Z,4.50
2018-05-31T20:54:09.819Z,5.17
2018-05-31T20:56:38.700Z,6.57
2018-05-31T20:59:06.787Z,7.17
2018-05-31T21:01:34.887Z,5.80
2018-05-31T21:04:03.001Z,6.47
2018-05-31T21:06:31.166Z,5.43
2018-05-31T21:09:00.040Z,5.43
2018-05-31T21:11:28.141Z,4.93
2018-05-31T21:13:56.239Z,7.33
2018-05-31T21:16:25.104Z,7.47
2018-05-31T21:18:53.199Z,5.80
2018-05-31T21:21:21.301Z,7.63
2018-05-31T21:23:49.395Z,5.17
2018-05-31T21:26:17.492Z,5.53
2018-05-31T21:28:45.586Z,8.03
2018-05-31T21:31:13.700Z,7.33
2018-05-31T21:33:41.806Z,5.30
2018-05-31T21:36:09.931Z,6.13
2018-05-31T21:38:38.024Z,5.13
2018-05-31T21:41:06.172Z,7.33
2018-05-31T21:43:34.232Z,6.90
2018-05-31T21:46:02.339Z,9.50
2018-05-31T21:48:30.504Z,8.03
2018-05-31T21:50:58.637Z,8.63
2018-05-31T21:53:26.744Z,7.17
2018-05-31T21:55:54.851Z,5.33
2018-05-31T21:58:22.951Z,11.03
2018-05-31T22:00:55.823Z,5.60
2018-05-31T22:03:23.930Z,5.77
2018-05-31T22:05:52.021Z,6.53
2018-05-31T22:08:20.119Z,5.10
2018-05-31T22:10:50.938Z,4.87
2018-05-31T22:13:19.051Z,6.60
2018-05-31T22:15:47.902Z,5.03
2018-05-31T22:18:15.988Z,8.90
2018-05-31T22:20:44.080Z,5.13
2018-05-31T22:23:12.177Z,7.27
2018-05-31T22:25:40.291Z,5.97
2018-05-31T22:28:09.148Z,5.77
2018-05-31T22:30:40.167Z,6.10
2018-05-31T22:33:08.905Z,6.70
2018-05-31T22:35:37.004Z,5.53
2018-05-31T22:38:05.108Z,6.67
2018-05-31T22:40:34.000Z,6.80
2018-05-31T22:43:02.130Z,5.90
2018-05-31T22:45:30.240Z,4.80
2018-05-31T22:47:58.349Z,5.03
2018-05-31T22:50:27.394Z,4.77
2018-05-31T22:52:55.512Z,6.77
2018-05-31T22:55:23.613Z,7.30
2018-05-31T22:57:51.743Z,5.20
2018-05-31T23:00:20.772Z,4.53
2018-05-31T23:02:50.308Z,4.90
2018-05-31T23:05:18.395Z,5.87
2018-05-31T23:07:46.488Z,7.40
2018-05-31T23:10:14.578Z,4.13
2018-05-31T23:12:42.671Z,6.07
2018-05-31T23:15:10.779Z,8.80
2018-05-31T23:17:39.629Z,6.70
2018-05-31T23:20:09.776Z,7.00
2018-05-31T23:22:37.955Z,7.00
2018-05-31T23:25:06.339Z,6.63
2018-05-31T23:27:34.429Z,5.53
2018-05-31T23:30:02.523Z,7.00
2018-05-31T23:32:30.610Z,5.17
2018-05-31T23:34:58.692Z,7.03
2018-05-31T23:37:26.801Z,4.53
2018-05-31T23:39:55.650Z,5.57
2018-05-31T23:42:23.746Z,8.10
2018-05-31T23:44:51.835Z,8.30
2018-05-31T23:47:19.956Z,6.63
2018-05-31T23:49:48.820Z,4.90
2018-05-31T23:52:18.308Z,5.40
2018-05-31T23:54:47.144Z,4.87
2018-05-31T23:57:15.242Z,4.80
2018-05-31T23:59:45.077Z,5.77
